Archival Weather

NSFA McMurdo Sound

NSFA McMurdo Sound, Antarctica (NZCM)

Report from: Friday, September 23, 2022 7:55 PM UTC
Current time: Sunday, December 4, 2022 12:57 PM UTC

Current weather
Weather history
Weather forecast

Temperature-15.8°C (3.6°F)
Dew point-20.3°C (-4.5°F)
Winds Calm
Visibility6.2 mi. (10 km)
Clouds Ceiling: Overcast 3,400 ft. (1,036 m)
Altimeter28.63 in.Hg (970 mB)
Precip. events Snow began 7:09 PM
Snow ended 7:55 PM
Relative humidity68 %
Density altitude-2,340 ft. (-713 m)
Sea-level pressure107.0 kPa (1070 mB, 31.60 in.Hg)
Remarks Fully automated report
System requires maintenance
Automated weather observing station with precipitation discriminator
Flight conditions Visual Meteorological Conditions
Raw dataNZCM 231955Z AUTO 00000KT 9999 OVC034 M16/M20 A2863 RMK AO2 SNB1909E1955 SLP702 T11581203 $
An error has occurred. This application may no longer respond until reloaded. Reload 🗙